sensor_id;sensor_type;location;lat;lon;timestamp;temperature;humidity
8541;DHT22;4308;51.294;6.590;2022-09-02T00:01:31;16.40;82.20
8541;DHT22;4308;51.294;6.590;2022-09-02T00:04:05;16.30;82.30
8541;DHT22;4308;51.294;6.590;2022-09-02T00:06:33;16.30;82.40
8541;DHT22;4308;51.294;6.590;2022-09-02T00:09:03;16.20;82.50
8541;DHT22;4308;51.294;6.590;2022-09-02T00:11:32;16.20;82.70
8541;DHT22;4308;51.294;6.590;2022-09-02T00:14:03;16.10;82.10
8541;DHT22;4308;51.294;6.590;2022-09-02T00:16:30;16.10;83.00
8541;DHT22;4308;51.294;6.590;2022-09-02T00:18:59;16.10;83.10
8541;DHT22;4308;51.294;6.590;2022-09-02T00:21:27;16.00;83.20
8541;DHT22;4308;51.294;6.590;2022-09-02T00:23:54;16.00;83.30
8541;DHT22;4308;51.294;6.590;2022-09-02T00:26:22;16.00;83.40
8541;DHT22;4308;51.294;6.590;2022-09-02T00:28:49;15.90;83.40
8541;DHT22;4308;51.294;6.590;2022-09-02T00:31:24;15.90;83.60
8541;DHT22;4308;51.294;6.590;2022-09-02T00:33:51;15.80;83.90
8541;DHT22;4308;51.294;6.590;2022-09-02T00:36:19;15.80;83.80
8541;DHT22;4308;51.294;6.590;2022-09-02T00:38:47;15.80;84.00
8541;DHT22;4308;51.294;6.590;2022-09-02T00:41:14;15.80;84.10
8541;DHT22;4308;51.294;6.590;2022-09-02T00:43:51;15.70;84.10
8541;DHT22;4308;51.294;6.590;2022-09-02T00:46:20;15.70;84.20
8541;DHT22;4308;51.294;6.590;2022-09-02T00:51:31;15.70;84.60
8541;DHT22;4308;51.294;6.590;2022-09-02T00:53:59;15.70;84.70
8541;DHT22;4308;51.294;6.590;2022-09-02T00:56:28;15.70;85.60
8541;DHT22;4308;51.294;6.590;2022-09-02T00:58:57;15.80;84.80
8541;DHT22;4308;51.294;6.590;2022-09-02T01:01:25;15.70;84.70
8541;DHT22;4308;51.294;6.590;2022-09-02T01:03:53;15.70;84.60
8541;DHT22;4308;51.294;6.590;2022-09-02T01:06:23;15.80;84.60
8541;DHT22;4308;51.294;6.590;2022-09-02T01:08:56;15.80;84.60
8541;DHT22;4308;51.294;6.590;2022-09-02T01:11:28;15.80;84.70
8541;DHT22;4308;51.294;6.590;2022-09-02T01:13:55;15.80;84.60
8541;DHT22;4308;51.294;6.590;2022-09-02T01:16:27;15.80;84.70
8541;DHT22;4308;51.294;6.590;2022-09-02T01:18:57;15.80;84.60
8541;DHT22;4308;51.294;6.590;2022-09-02T01:21:25;15.80;84.60
8541;DHT22;4308;51.294;6.590;2022-09-02T01:23:53;15.80;84.70
8541;DHT22;4308;51.294;6.590;2022-09-02T01:26:20;15.90;84.50
8541;DHT22;4308;51.294;6.590;2022-09-02T01:28:47;15.90;84.40
8541;DHT22;4308;51.294;6.590;2022-09-02T01:31:15;15.90;84.50
8541;DHT22;4308;51.294;6.590;2022-09-02T01:33:42;15.90;84.50
8541;DHT22;4308;51.294;6.590;2022-09-02T01:36:11;15.90;84.50
8541;DHT22;4308;51.294;6.590;2022-09-02T01:38:38;15.90;84.50
8541;DHT22;4308;51.294;6.590;2022-09-02T01:41:06;16.00;84.60
8541;DHT22;4308;51.294;6.590;2022-09-02T01:43:33;16.00;84.60
8541;DHT22;4308;51.294;6.590;2022-09-02T01:46:01;16.00;84.60
8541;DHT22;4308;51.294;6.590;2022-09-02T01:48:28;16.00;84.70
8541;DHT22;4308;51.294;6.590;2022-09-02T01:50:59;16.00;84.70
8541;DHT22;4308;51.294;6.590;2022-09-02T01:53:28;16.00;84.80
8541;DHT22;4308;51.294;6.590;2022-09-02T01:55:56;16.00;84.80
8541;DHT22;4308;51.294;6.590;2022-09-02T01:58:23;16.00;84.80
8541;DHT22;4308;51.294;6.590;2022-09-02T02:00:51;16.00;84.80
8541;DHT22;4308;51.294;6.590;2022-09-02T02:03:19;16.00;84.90
8541;DHT22;4308;51.294;6.590;2022-09-02T02:05:47;16.00;84.80
8541;DHT22;4308;51.294;6.590;2022-09-02T02:08:14;16.00;85.00
8541;DHT22;4308;51.294;6.590;2022-09-02T02:10:41;16.00;84.90
8541;DHT22;4308;51.294;6.590;2022-09-02T02:13:09;16.00;85.00
8541;DHT22;4308;51.294;6.590;2022-09-02T02:15:38;16.00;85.10
8541;DHT22;4308;51.294;6.590;2022-09-02T02:18:06;16.00;85.20
8541;DHT22;4308;51.294;6.590;2022-09-02T02:20:34;16.00;85.20
8541;DHT22;4308;51.294;6.590;2022-09-02T02:23:02;16.00;85.10
8541;DHT22;4308;51.294;6.590;2022-09-02T02:25:30;16.00;85.20
8541;DHT22;4308;51.294;6.590;2022-09-02T02:27:57;16.10;85.50
8541;DHT22;4308;51.294;6.590;2022-09-02T02:30:25;16.10;85.90
8541;DHT22;4308;51.294;6.590;2022-09-02T02:32:52;16.10;85.10
8541;DHT22;4308;51.294;6.590;2022-09-02T02:35:20;16.10;85.70
8541;DHT22;4308;51.294;6.590;2022-09-02T02:37:48;16.10;84.90
8541;DHT22;4308;51.294;6.590;2022-09-02T02:40:18;16.10;85.00
8541;DHT22;4308;51.294;6.590;2022-09-02T02:42:46;16.10;85.70
8541;DHT22;4308;51.294;6.590;2022-09-02T02:45:14;16.10;86.20
8541;DHT22;4308;51.294;6.590;2022-09-02T02:47:42;16.10;86.00
8541;DHT22;4308;51.294;6.590;2022-09-02T02:50:12;16.10;85.70
8541;DHT22;4308;51.294;6.590;2022-09-02T02:52:40;16.10;86.00
8541;DHT22;4308;51.294;6.590;2022-09-02T02:55:09;16.10;86.70
8541;DHT22;4308;51.294;6.590;2022-09-02T02:57:38;16.10;85.90
8541;DHT22;4308;51.294;6.590;2022-09-02T03:02:34;16.20;86.00
8541;DHT22;4308;51.294;6.590;2022-09-02T03:05:04;16.20;86.20
8541;DHT22;4308;51.294;6.590;2022-09-02T03:07:32;16.20;86.40
8541;DHT22;4308;51.294;6.590;2022-09-02T03:10:00;16.20;86.40
8541;DHT22;4308;51.294;6.590;2022-09-02T03:12:28;16.20;86.50
8541;DHT22;4308;51.294;6.590;2022-09-02T03:14:55;16.30;86.60
8541;DHT22;4308;51.294;6.590;2022-09-02T03:17:22;16.20;86.40
8541;DHT22;4308;51.294;6.590;2022-09-02T03:19:50;16.30;86.50
8541;DHT22;4308;51.294;6.590;2022-09-02T03:22:17;16.30;86.50
8541;DHT22;4308;51.294;6.590;2022-09-02T03:24:45;16.30;86.40
8541;DHT22;4308;51.294;6.590;2022-09-02T03:27:12;16.40;86.40
8541;DHT22;4308;51.294;6.590;2022-09-02T03:29:39;16.40;86.50
8541;DHT22;4308;51.294;6.590;2022-09-02T03:32:06;16.40;86.10
8541;DHT22;4308;51.294;6.590;2022-09-02T03:34:34;16.40;86.00
8541;DHT22;4308;51.294;6.590;2022-09-02T03:37:01;16.30;85.80
8541;DHT22;4308;51.294;6.590;2022-09-02T03:39:28;16.30;85.60
8541;DHT22;4308;51.294;6.590;2022-09-02T03:41:55;16.30;85.70
8541;DHT22;4308;51.294;6.590;2022-09-02T03:44:23;16.30;85.40
8541;DHT22;4308;51.294;6.590;2022-09-02T03:46:50;16.30;85.40
8541;DHT22;4308;51.294;6.590;2022-09-02T03:49:17;16.30;85.40
8541;DHT22;4308;51.294;6.590;2022-09-02T03:51:44;16.30;85.60
8541;DHT22;4308;51.294;6.590;2022-09-02T03:54:11;16.20;85.60
8541;DHT22;4308;51.294;6.590;2022-09-02T03:56:39;16.30;86.10
8541;DHT22;4308;51.294;6.590;2022-09-02T03:59:06;16.20;85.80
8541;DHT22;4308;51.294;6.590;2022-09-02T04:01:34;16.20;85.60
8541;DHT22;4308;51.294;6.590;2022-09-02T04:04:04;16.10;85.60
8541;DHT22;4308;51.294;6.590;2022-09-02T04:06:31;16.10;85.70
8541;DHT22;4308;51.294;6.590;2022-09-02T04:08:59;16.10;85.50
8541;DHT22;4308;51.294;6.590;2022-09-02T04:11:26;16.10;85.40
8541;DHT22;4308;51.294;6.590;2022-09-02T04:13:54;16.20;85.30
8541;DHT22;4308;51.294;6.590;2022-09-02T04:23:10;16.20;85.00
8541;DHT22;4308;51.294;6.590;2022-09-02T04:25:39;16.30;84.70
8541;DHT22;4308;51.294;6.590;2022-09-02T04:28:08;16.30;84.70
8541;DHT22;4308;51.294;6.590;2022-09-02T04:30:40;16.40;84.60
8541;DHT22;4308;51.294;6.590;2022-09-02T04:33:08;16.30;84.20
8541;DHT22;4308;51.294;6.590;2022-09-02T04:35:42;16.40;84.10
8541;DHT22;4308;51.294;6.590;2022-09-02T04:38:12;16.30;83.90
8541;DHT22;4308;51.294;6.590;2022-09-02T04:40:40;16.30;83.90
8541;DHT22;4308;51.294;6.590;2022-09-02T04:43:08;16.30;83.90
8541;DHT22;4308;51.294;6.590;2022-09-02T04:45:39;16.40;84.10
8541;DHT22;4308;51.294;6.590;2022-09-02T04:48:07;16.30;84.30
8541;DHT22;4308;51.294;6.590;2022-09-02T04:50:36;16.30;84.30
8541;DHT22;4308;51.294;6.590;2022-09-02T04:53:04;16.30;84.60
8541;DHT22;4308;51.294;6.590;2022-09-02T04:55:32;16.30;84.80
8541;DHT22;4308;51.294;6.590;2022-09-02T04:57:59;16.20;84.80
8541;DHT22;4308;51.294;6.590;2022-09-02T05:00:26;16.30;84.50
8541;DHT22;4308;51.294;6.590;2022-09-02T05:02:54;16.30;84.60
8541;DHT22;4308;51.294;6.590;2022-09-02T05:05:22;16.30;84.50
8541;DHT22;4308;51.294;6.590;2022-09-02T05:07:49;16.30;84.50
8541;DHT22;4308;51.294;6.590;2022-09-02T05:10:16;16.40;84.10
8541;DHT22;4308;51.294;6.590;2022-09-02T05:12:43;16.50;84.00
8541;DHT22;4308;51.294;6.590;2022-09-02T05:15:11;16.60;83.70
8541;DHT22;4308;51.294;6.590;2022-09-02T05:17:39;16.70;83.30
8541;DHT22;4308;51.294;6.590;2022-09-02T05:20:08;17.00;83.20
8541;DHT22;4308;51.294;6.590;2022-09-02T05:22:36;17.50;82.70
8541;DHT22;4308;51.294;6.590;2022-09-02T05:25:05;17.50;82.30
8541;DHT22;4308;51.294;6.590;2022-09-02T05:27:32;17.40;82.10
8541;DHT22;4308;51.294;6.590;2022-09-02T05:29:59;17.50;82.00
8541;DHT22;4308;51.294;6.590;2022-09-02T05:32:27;17.80;81.60
8541;DHT22;4308;51.294;6.590;2022-09-02T05:34:54;17.70;81.00
8541;DHT22;4308;51.294;6.590;2022-09-02T05:37:22;17.80;81.90
8541;DHT22;4308;51.294;6.590;2022-09-02T05:39:50;17.90;81.30
8541;DHT22;4308;51.294;6.590;2022-09-02T05:42:18;17.90;81.10
8541;DHT22;4308;51.294;6.590;2022-09-02T05:44:45;18.00;81.70
8541;DHT22;4308;51.294;6.590;2022-09-02T05:47:13;18.00;82.00
8541;DHT22;4308;51.294;6.590;2022-09-02T05:49:40;18.00;81.30
8541;DHT22;4308;51.294;6.590;2022-09-02T05:52:08;18.00;81.40
8541;DHT22;4308;51.294;6.590;2022-09-02T05:54:37;18.00;81.40
8541;DHT22;4308;51.294;6.590;2022-09-02T05:57:11;18.00;81.50
8541;DHT22;4308;51.294;6.590;2022-09-02T05:59:40;18.00;81.60
8541;DHT22;4308;51.294;6.590;2022-09-02T06:02:09;18.00;81.30
8541;DHT22;4308;51.294;6.590;2022-09-02T06:04:43;18.00;81.30
8541;DHT22;4308;51.294;6.590;2022-09-02T06:07:12;18.10;81.80
8541;DHT22;4308;51.294;6.590;2022-09-02T06:09:40;18.10;81.40
8541;DHT22;4308;51.294;6.590;2022-09-02T06:12:08;18.20;81.50
8541;DHT22;4308;51.294;6.590;2022-09-02T06:14:35;18.30;81.20
8541;DHT22;4308;51.294;6.590;2022-09-02T06:17:03;18.40;81.40
8541;DHT22;4308;51.294;6.590;2022-09-02T06:19:31;18.50;81.20
8541;DHT22;4308;51.294;6.590;2022-09-02T06:22:00;18.40;80.30
8541;DHT22;4308;51.294;6.590;2022-09-02T06:24:29;18.50;81.00
8541;DHT22;4308;51.294;6.590;2022-09-02T06:26:57;18.50;81.00
8541;DHT22;4308;51.294;6.590;2022-09-02T06:29:25;18.50;80.90
8541;DHT22;4308;51.294;6.590;2022-09-02T06:31:53;18.50;80.70
8541;DHT22;4308;51.294;6.590;2022-09-02T06:34:21;18.50;81.10
8541;DHT22;4308;51.294;6.590;2022-09-02T06:36:49;18.60;80.70
8541;DHT22;4308;51.294;6.590;2022-09-02T06:39:19;18.70;81.00
8541;DHT22;4308;51.294;6.590;2022-09-02T06:41:47;18.80;81.60
8541;DHT22;4308;51.294;6.590;2022-09-02T06:44:15;18.90;80.90
8541;DHT22;4308;51.294;6.590;2022-09-02T06:46:47;19.10;80.50
8541;DHT22;4308;51.294;6.590;2022-09-02T06:49:18;19.20;80.20
8541;DHT22;4308;51.294;6.590;2022-09-02T06:51:47;19.30;79.90
8541;DHT22;4308;51.294;6.590;2022-09-02T06:54:17;19.50;80.00
8541;DHT22;4308;51.294;6.590;2022-09-02T06:56:47;19.50;79.20
8541;DHT22;4308;51.294;6.590;2022-09-02T06:59:19;19.60;79.00
8541;DHT22;4308;51.294;6.590;2022-09-02T07:01:47;19.80;79.10
8541;DHT22;4308;51.294;6.590;2022-09-02T07:04:16;19.90;79.00
8541;DHT22;4308;51.294;6.590;2022-09-02T07:06:47;20.00;78.90
8541;DHT22;4308;51.294;6.590;2022-09-02T07:09:18;20.20;78.40
8541;DHT22;4308;51.294;6.590;2022-09-02T07:11:47;20.40;78.10
8541;DHT22;4308;51.294;6.590;2022-09-02T07:14:17;20.50;77.80
8541;DHT22;4308;51.294;6.590;2022-09-02T07:16:48;20.60;77.00
8541;DHT22;4308;51.294;6.590;2022-09-02T07:19:17;20.70;77.00
8541;DHT22;4308;51.294;6.590;2022-09-02T07:21:48;20.90;76.80
8541;DHT22;4308;51.294;6.590;2022-09-02T07:24:16;21.20;77.00
8541;DHT22;4308;51.294;6.590;2022-09-02T07:26:43;21.20;76.50
8541;DHT22;4308;51.294;6.590;2022-09-02T07:29:11;21.30;76.20
8541;DHT22;4308;51.294;6.590;2022-09-02T07:31:41;21.50;75.90
8541;DHT22;4308;51.294;6.590;2022-09-02T07:34:11;21.60;76.10
8541;DHT22;4308;51.294;6.590;2022-09-02T07:36:38;21.60;75.40
8541;DHT22;4308;51.294;6.590;2022-09-02T07:39:10;21.70;75.20
8541;DHT22;4308;51.294;6.590;2022-09-02T07:41:39;22.10;75.40
8541;DHT22;4308;51.294;6.590;2022-09-02T07:44:06;22.10;75.00
8541;DHT22;4308;51.294;6.590;2022-09-02T07:46:35;22.10;74.80
8541;DHT22;4308;51.294;6.590;2022-09-02T07:49:06;22.20;74.60
8541;DHT22;4308;51.294;6.590;2022-09-02T07:51:38;22.10;75.00
8541;DHT22;4308;51.294;6.590;2022-09-02T07:54:08;22.10;75.20
8541;DHT22;4308;51.294;6.590;2022-09-02T07:56:35;22.10;74.80
8541;DHT22;4308;51.294;6.590;2022-09-02T07:59:03;22.10;74.50
8541;DHT22;4308;51.294;6.590;2022-09-02T08:01:31;22.20;74.30
8541;DHT22;4308;51.294;6.590;2022-09-02T08:03:59;22.20;74.20
8541;DHT22;4308;51.294;6.590;2022-09-02T08:06:32;22.20;74.70
8541;DHT22;4308;51.294;6.590;2022-09-02T08:09:05;22.10;74.70
8541;DHT22;4308;51.294;6.590;2022-09-02T08:11:33;22.00;74.80
8541;DHT22;4308;51.294;6.590;2022-09-02T08:14:00;21.80;74.80
8541;DHT22;4308;51.294;6.590;2022-09-02T08:16:27;22.10;75.30
8541;DHT22;4308;51.294;6.590;2022-09-02T08:18:55;22.20;75.30
8541;DHT22;4308;51.294;6.590;2022-09-02T08:21:22;22.20;75.20
8541;DHT22;4308;51.294;6.590;2022-09-02T08:23:49;22.30;75.40
8541;DHT22;4308;51.294;6.590;2022-09-02T08:26:17;22.40;75.20
8541;DHT22;4308;51.294;6.590;2022-09-02T08:28:44;22.30;75.10
8541;DHT22;4308;51.294;6.590;2022-09-02T08:31:11;22.20;74.90
8541;DHT22;4308;51.294;6.590;2022-09-02T08:33:39;22.30;75.40
8541;DHT22;4308;51.294;6.590;2022-09-02T08:36:08;22.30;75.00
8541;DHT22;4308;51.294;6.590;2022-09-02T08:38:35;22.50;75.50
8541;DHT22;4308;51.294;6.590;2022-09-02T08:41:16;22.50;75.40
8541;DHT22;4308;51.294;6.590;2022-09-02T08:43:46;22.40;74.90
8541;DHT22;4308;51.294;6.590;2022-09-02T08:46:15;22.40;75.00
8541;DHT22;4308;51.294;6.590;2022-09-02T08:48:45;22.40;75.30
8541;DHT22;4308;51.294;6.590;2022-09-02T08:51:36;22.50;74.70
8541;DHT22;4308;51.294;6.590;2022-09-02T08:56:42;22.90;75.00
8541;DHT22;4308;51.294;6.590;2022-09-02T08:59:09;23.10;74.20
8541;DHT22;4308;51.294;6.590;2022-09-02T09:16:10;23.40;73.80
8541;DHT22;4308;51.294;6.590;2022-09-02T09:18:47;23.40;73.10
8541;DHT22;4308;51.294;6.590;2022-09-02T09:21:20;23.50;72.80
8541;DHT22;4308;51.294;6.590;2022-09-02T09:23:53;23.60;72.90
8541;DHT22;4308;51.294;6.590;2022-09-02T09:26:27;23.90;72.60
8541;DHT22;4308;51.294;6.590;2022-09-02T09:28:55;24.10;72.60
8541;DHT22;4308;51.294;6.590;2022-09-02T09:31:27;24.30;72.40
8541;DHT22;4308;51.294;6.590;2022-09-02T09:36:43;24.20;70.90
8541;DHT22;4308;51.294;6.590;2022-09-02T09:39:29;24.30;70.70
8541;DHT22;4308;51.294;6.590;2022-09-02T09:41:59;24.50;71.10
8541;DHT22;4308;51.294;6.590;2022-09-02T09:44:47;24.70;70.50
8541;DHT22;4308;51.294;6.590;2022-09-02T09:47:18;24.80;70.10
8541;DHT22;4308;51.294;6.590;2022-09-02T09:49:48;24.90;70.50
8541;DHT22;4308;51.294;6.590;2022-09-02T09:52:24;25.00;70.90
8541;DHT22;4308;51.294;6.590;2022-09-02T10:42:58;26.40;99.90
8541;DHT22;4308;51.294;6.590;2022-09-02T10:56:04;27.70;59.10
8541;DHT22;4308;51.294;6.590;2022-09-02T10:59:04;27.50;57.00
8541;DHT22;4308;51.294;6.590;2022-09-02T11:01:42;27.80;58.00
8541;DHT22;4308;51.294;6.590;2022-09-02T11:07:26;27.80;57.60
8541;DHT22;4308;51.294;6.590;2022-09-02T11:10:02;28.30;56.50
8541;DHT22;4308;51.294;6.590;2022-09-02T11:12:35;28.90;57.50
8541;DHT22;4308;51.294;6.590;2022-09-02T11:20:53;28.50;55.90
8541;DHT22;4308;51.294;6.590;2022-09-02T11:23:46;28.50;56.30
8541;DHT22;4308;51.294;6.590;2022-09-02T11:26:22;28.30;56.30
8541;DHT22;4308;51.294;6.590;2022-09-02T11:29:02;28.10;57.10
8541;DHT22;4308;51.294;6.590;2022-09-02T11:31:48;28.20;57.40
8541;DHT22;4308;51.294;6.590;2022-09-02T11:36:45;28.20;56.60
8541;DHT22;4308;51.294;6.590;2022-09-02T11:39:20;27.70;56.00
8541;DHT22;4308;51.294;6.590;2022-09-02T11:42:31;28.20;56.50
8541;DHT22;4308;51.294;6.590;2022-09-02T12:01:20;28.40;55.40
8541;DHT22;4308;51.294;6.590;2022-09-02T12:04:05;27.90;55.80
8541;DHT22;4308;51.294;6.590;2022-09-02T12:09:50;26.80;55.90
8541;DHT22;4308;51.294;6.590;2022-09-02T12:15:24;27.40;57.20
8541;DHT22;4308;51.294;6.590;2022-09-02T12:26:17;27.80;56.70
8541;DHT22;4308;51.294;6.590;2022-09-02T12:28:46;28.20;56.30
8541;DHT22;4308;51.294;6.590;2022-09-02T12:33:49;28.60;55.80
8541;DHT22;4308;51.294;6.590;2022-09-02T12:49:58;27.40;56.20
8541;DHT22;4308;51.294;6.590;2022-09-02T12:52:45;27.10;56.00
8541;DHT22;4308;51.294;6.590;2022-09-02T12:55:20;27.40;56.80
8541;DHT22;4308;51.294;6.590;2022-09-02T12:57:51;27.50;56.30
8541;DHT22;4308;51.294;6.590;2022-09-02T13:00:36;27.80;56.20
8541;DHT22;4308;51.294;6.590;2022-09-02T13:03:10;27.70;55.80
8541;DHT22;4308;51.294;6.590;2022-09-02T13:05:59;27.40;55.70
8541;DHT22;4308;51.294;6.590;2022-09-02T13:08:51;27.80;55.50
8541;DHT22;4308;51.294;6.590;2022-09-02T13:11:47;27.70;55.60
8541;DHT22;4308;51.294;6.590;2022-09-02T13:20:51;27.00;55.90
8541;DHT22;4308;51.294;6.590;2022-09-02T13:26:24;27.10;55.30
8541;DHT22;4308;51.294;6.590;2022-09-02T13:32:20;26.60;55.50
8541;DHT22;4308;51.294;6.590;2022-09-02T13:34:50;26.90;55.80
8541;DHT22;4308;51.294;6.590;2022-09-02T13:37:41;27.10;55.90
8541;DHT22;4308;51.294;6.590;2022-09-02T13:40:24;27.10;55.50
8541;DHT22;4308;51.294;6.590;2022-09-02T13:42:57;27.40;56.00
8541;DHT22;4308;51.294;6.590;2022-09-02T13:45:26;27.50;55.70
8541;DHT22;4308;51.294;6.590;2022-09-02T13:47:56;27.90;55.70
8541;DHT22;4308;51.294;6.590;2022-09-02T13:50:29;28.10;55.50
8541;DHT22;4308;51.294;6.590;2022-09-02T13:53:04;28.20;55.00
8541;DHT22;4308;51.294;6.590;2022-09-02T13:55:56;28.40;54.60
8541;DHT22;4308;51.294;6.590;2022-09-02T13:58:39;28.50;54.80
8541;DHT22;4308;51.294;6.590;2022-09-02T14:04:05;28.40;54.30
8541;DHT22;4308;51.294;6.590;2022-09-02T14:06:40;28.40;54.10
8541;DHT22;4308;51.294;6.590;2022-09-02T14:09:17;28.60;54.20
8541;DHT22;4308;51.294;6.590;2022-09-02T14:11:46;28.70;53.90
8541;DHT22;4308;51.294;6.590;2022-09-02T14:14:16;28.60;53.80
8541;DHT22;4308;51.294;6.590;2022-09-02T14:16:44;28.20;53.80
8541;DHT22;4308;51.294;6.590;2022-09-02T14:21:57;27.60;54.90
8541;DHT22;4308;51.294;6.590;2022-09-02T14:24:27;27.60;54.10
8541;DHT22;4308;51.294;6.590;2022-09-02T14:26:59;27.50;54.10
8541;DHT22;4308;51.294;6.590;2022-09-02T14:29:28;27.40;54.30
8541;DHT22;4308;51.294;6.590;2022-09-02T14:34:39;27.30;54.60
8541;DHT22;4308;51.294;6.590;2022-09-02T14:40:05;26.80;54.40
8541;DHT22;4308;51.294;6.590;2022-09-02T14:42:41;27.20;55.20
8541;DHT22;4308;51.294;6.590;2022-09-02T14:45:10;27.40;55.40
8541;DHT22;4308;51.294;6.590;2022-09-02T14:47:38;27.30;54.40
8541;DHT22;4308;51.294;6.590;2022-09-02T14:50:11;27.10;53.90
8541;DHT22;4308;51.294;6.590;2022-09-02T14:52:47;27.30;54.20
8541;DHT22;4308;51.294;6.590;2022-09-02T14:58:12;27.50;54.60
8541;DHT22;4308;51.294;6.590;2022-09-02T15:00:42;27.60;54.70
8541;DHT22;4308;51.294;6.590;2022-09-02T15:03:13;27.70;54.70
8541;DHT22;4308;51.294;6.590;2022-09-02T15:05:41;27.60;54.40
8541;DHT22;4308;51.294;6.590;2022-09-02T15:08:09;27.70;54.20
8541;DHT22;4308;51.294;6.590;2022-09-02T15:10:37;27.60;55.00
8541;DHT22;4308;51.294;6.590;2022-09-02T15:13:25;27.70;54.60
8541;DHT22;4308;51.294;6.590;2022-09-02T15:15:53;27.70;54.50
8541;DHT22;4308;51.294;6.590;2022-09-02T15:18:21;27.70;54.80
8541;DHT22;4308;51.294;6.590;2022-09-02T15:20:49;27.50;54.40
8541;DHT22;4308;51.294;6.590;2022-09-02T15:23:17;27.70;55.10
8541;DHT22;4308;51.294;6.590;2022-09-02T15:25:44;27.70;55.10
8541;DHT22;4308;51.294;6.590;2022-09-02T15:28:12;27.60;54.70
8541;DHT22;4308;51.294;6.590;2022-09-02T15:30:39;27.60;55.10
8541;DHT22;4308;51.294;6.590;2022-09-02T15:33:07;27.70;55.00
8541;DHT22;4308;51.294;6.590;2022-09-02T15:35:42;27.60;54.70
8541;DHT22;4308;51.294;6.590;2022-09-02T15:38:09;27.30;54.40
8541;DHT22;4308;51.294;6.590;2022-09-02T15:40:37;27.10;54.70
8541;DHT22;4308;51.294;6.590;2022-09-02T15:43:04;27.20;54.90
8541;DHT22;4308;51.294;6.590;2022-09-02T15:45:31;27.20;54.90
8541;DHT22;4308;51.294;6.590;2022-09-02T15:47:58;27.00;54.40
8541;DHT22;4308;51.294;6.590;2022-09-02T15:50:30;27.20;54.90
8541;DHT22;4308;51.294;6.590;2022-09-02T15:52:57;27.20;55.10
8541;DHT22;4308;51.294;6.590;2022-09-02T15:55:24;27.20;55.30
8541;DHT22;4308;51.294;6.590;2022-09-02T15:57:55;26.90;54.60
8541;DHT22;4308;51.294;6.590;2022-09-02T16:00:23;27.10;55.20
8541;DHT22;4308;51.294;6.590;2022-09-02T16:02:54;27.00;55.10
8541;DHT22;4308;51.294;6.590;2022-09-02T16:05:21;26.90;55.10
8541;DHT22;4308;51.294;6.590;2022-09-02T16:07:48;27.00;55.20
8541;DHT22;4308;51.294;6.590;2022-09-02T16:10:16;27.00;55.50
8541;DHT22;4308;51.294;6.590;2022-09-02T16:12:43;26.90;55.60
8541;DHT22;4308;51.294;6.590;2022-09-02T16:15:10;26.70;55.60
8541;DHT22;4308;51.294;6.590;2022-09-02T16:17:37;26.70;56.20
8541;DHT22;4308;51.294;6.590;2022-09-02T16:20:05;26.60;55.90
8541;DHT22;4308;51.294;6.590;2022-09-02T16:22:32;26.70;56.20
8541;DHT22;4308;51.294;6.590;2022-09-02T16:25:01;26.70;56.30
8541;DHT22;4308;51.294;6.590;2022-09-02T16:27:28;26.70;56.10
8541;DHT22;4308;51.294;6.590;2022-09-02T16:29:55;26.40;55.80
8541;DHT22;4308;51.294;6.590;2022-09-02T16:32:22;26.40;56.20
8541;DHT22;4308;51.294;6.590;2022-09-02T16:34:54;26.20;56.30
8541;DHT22;4308;51.294;6.590;2022-09-02T16:37:21;26.10;56.20
8541;DHT22;4308;51.294;6.590;2022-09-02T16:39:48;26.20;56.70
8541;DHT22;4308;51.294;6.590;2022-09-02T16:42:15;26.10;57.00
8541;DHT22;4308;51.294;6.590;2022-09-02T16:44:42;26.00;56.70
8541;DHT22;4308;51.294;6.590;2022-09-02T16:47:10;26.20;57.30
8541;DHT22;4308;51.294;6.590;2022-09-02T16:49:40;26.20;57.20
8541;DHT22;4308;51.294;6.590;2022-09-02T16:52:07;26.20;57.50
8541;DHT22;4308;51.294;6.590;2022-09-02T16:54:34;26.10;57.10
8541;DHT22;4308;51.294;6.590;2022-09-02T16:57:07;26.10;57.20
8541;DHT22;4308;51.294;6.590;2022-09-02T16:59:34;26.10;57.30
8541;DHT22;4308;51.294;6.590;2022-09-02T17:02:01;26.10;57.40
8541;DHT22;4308;51.294;6.590;2022-09-02T17:04:29;26.00;57.30
8541;DHT22;4308;51.294;6.590;2022-09-02T17:06:56;25.90;56.80
8541;DHT22;4308;51.294;6.590;2022-09-02T17:09:26;25.90;57.20
8541;DHT22;4308;51.294;6.590;2022-09-02T17:11:53;25.90;57.40
8541;DHT22;4308;51.294;6.590;2022-09-02T17:14:21;25.90;57.40
8541;DHT22;4308;51.294;6.590;2022-09-02T17:16:49;25.80;57.30
8541;DHT22;4308;51.294;6.590;2022-09-02T17:19:18;25.70;57.50
8541;DHT22;4308;51.294;6.590;2022-09-02T17:21:50;25.50;57.00
8541;DHT22;4308;51.294;6.590;2022-09-02T17:24:20;25.50;57.20
8541;DHT22;4308;51.294;6.590;2022-09-02T17:26:49;25.40;57.90
8541;DHT22;4308;51.294;6.590;2022-09-02T17:29:22;25.30;57.70
8541;DHT22;4308;51.294;6.590;2022-09-02T17:32:09;25.30;58.00
8541;DHT22;4308;51.294;6.590;2022-09-02T17:34:37;25.30;58.20
8541;DHT22;4308;51.294;6.590;2022-09-02T17:37:05;25.30;58.40
8541;DHT22;4308;51.294;6.590;2022-09-02T17:39:32;25.20;58.50
8541;DHT22;4308;51.294;6.590;2022-09-02T17:42:00;25.10;58.20
8541;DHT22;4308;51.294;6.590;2022-09-02T17:44:28;25.00;58.40
8541;DHT22;4308;51.294;6.590;2022-09-02T17:46:57;24.90;58.60
8541;DHT22;4308;51.294;6.590;2022-09-02T17:49:25;24.90;58.80
8541;DHT22;4308;51.294;6.590;2022-09-02T17:51:52;24.80;58.80
8541;DHT22;4308;51.294;6.590;2022-09-02T19:01:56;22.10;63.20
8541;DHT22;4308;51.294;6.590;2022-09-02T19:04:27;22.00;64.00
8541;DHT22;4308;51.294;6.590;2022-09-02T19:06:55;21.90;64.30
8541;DHT22;4308;51.294;6.590;2022-09-02T19:09:24;21.80;64.60
8541;DHT22;4308;51.294;6.590;2022-09-02T19:11:52;21.70;65.00
8541;DHT22;4308;51.294;6.590;2022-09-02T19:14:27;21.60;64.70
8541;DHT22;4308;51.294;6.590;2022-09-02T19:16:56;21.60;65.10
8541;DHT22;4308;51.294;6.590;2022-09-02T19:19:24;21.50;65.30
8541;DHT22;4308;51.294;6.590;2022-09-02T19:21:54;21.40;65.50
8541;DHT22;4308;51.294;6.590;2022-09-02T19:24:25;21.40;65.60
8541;DHT22;4308;51.294;6.590;2022-09-02T19:26:59;21.30;65.90
8541;DHT22;4308;51.294;6.590;2022-09-02T19:29:27;21.20;65.70
8541;DHT22;4308;51.294;6.590;2022-09-02T19:31:55;21.20;66.10
8541;DHT22;4308;51.294;6.590;2022-09-02T19:34:23;21.10;66.00
8541;DHT22;4308;51.294;6.590;2022-09-02T19:36:51;21.00;66.00
8541;DHT22;4308;51.294;6.590;2022-09-02T19:39:19;21.00;66.30
8541;DHT22;4308;51.294;6.590;2022-09-02T19:41:46;21.00;66.50
8541;DHT22;4308;51.294;6.590;2022-09-02T19:44:13;20.90;66.50
8541;DHT22;4308;51.294;6.590;2022-09-02T19:46:40;20.90;66.70
8541;DHT22;4308;51.294;6.590;2022-09-02T19:49:28;20.80;66.60
8541;DHT22;4308;51.294;6.590;2022-09-02T19:51:55;20.80;66.70
8541;DHT22;4308;51.294;6.590;2022-09-02T19:54:22;20.70;66.90
8541;DHT22;4308;51.294;6.590;2022-09-02T19:56:50;20.60;66.90
8541;DHT22;4308;51.294;6.590;2022-09-02T19:59:17;20.60;67.00
8541;DHT22;4308;51.294;6.590;2022-09-02T20:01:44;20.50;67.00
8541;DHT22;4308;51.294;6.590;2022-09-02T20:04:11;20.40;67.10
8541;DHT22;4308;51.294;6.590;2022-09-02T20:06:39;20.40;67.30
8541;DHT22;4308;51.294;6.590;2022-09-02T20:11:34;20.10;66.70
8541;DHT22;4308;51.294;6.590;2022-09-02T20:14:07;20.20;67.50
8541;DHT22;4308;51.294;6.590;2022-09-02T20:16:34;20.10;67.70
8541;DHT22;4308;51.294;6.590;2022-09-02T20:19:01;20.10;67.70
8541;DHT22;4308;51.294;6.590;2022-09-02T20:21:40;20.10;67.80
8541;DHT22;4308;51.294;6.590;2022-09-02T20:24:10;20.00;67.80
8541;DHT22;4308;51.294;6.590;2022-09-02T20:26:50;20.00;68.20